createdAt,value
2019-03-05T00:00:32.586Z,4.90
2019-03-05T00:05:36.136Z,5.30
2019-03-05T00:10:39.675Z,5.12
2019-03-05T00:15:44.129Z,5.30
2019-03-05T00:20:47.649Z,5.22
2019-03-05T00:25:51.206Z,5.17
2019-03-05T00:31:00.847Z,5.40
2019-03-05T00:36:13.727Z,4.72
2019-03-05T00:41:26.272Z,5.15
2019-03-05T00:46:35.788Z,5.65
2019-03-05T00:51:54.622Z,5.37
2019-03-05T00:57:01.256Z,5.40
2019-03-05T01:02:16.910Z,5.20
2019-03-05T01:07:20.425Z,5.03
2019-03-05T01:12:24.185Z,5.55
2019-03-05T01:17:27.743Z,5.37
2019-03-05T01:22:31.259Z,5.85
2019-03-05T01:27:34.824Z,6.40
2019-03-05T01:32:42.735Z,6.12
2019-03-05T01:37:46.264Z,6.90
2019-03-05T01:42:49.828Z,6.87
2019-03-05T01:47:53.385Z,7.00
2019-03-05T01:52:56.948Z,6.92
2019-03-05T01:58:00.495Z,7.03
2019-03-05T02:03:05.110Z,7.42
2019-03-05T02:08:08.638Z,6.90
2019-03-05T02:13:12.204Z,6.78
2019-03-05T02:18:18.858Z,6.70
2019-03-05T02:23:31.283Z,6.62
2019-03-05T02:28:43.611Z,6.45
2019-03-05T02:33:59.070Z,6.60
2019-03-05T02:39:08.520Z,6.22
2019-03-05T02:44:33.713Z,7.50
2019-03-05T02:50:13.733Z,7.37
2019-03-05T02:55:32.508Z,5.53
2019-03-05T03:00:37.642Z,5.23
2019-03-05T03:05:45.854Z,5.20
2019-03-05T03:10:49.423Z,5.10
2019-03-05T03:15:52.950Z,4.72
2019-03-05T03:20:56.517Z,4.65
2019-03-05T03:26:00.104Z,4.55
2019-03-05T03:31:03.641Z,4.55
2019-03-05T03:36:07.189Z,4.78
2019-03-05T03:41:10.711Z,4.67
2019-03-05T03:46:14.263Z,4.50
2019-03-05T03:51:17.843Z,4.37
2019-03-05T03:56:21.366Z,5.17
2019-03-05T04:01:24.931Z,6.40
2019-03-05T04:06:28.487Z,7.65
2019-03-05T04:11:32.026Z,11.22
2019-03-05T04:16:35.560Z,10.65
2019-03-05T04:21:39.154Z,8.60
2019-03-05T04:26:42.697Z,8.55
2019-03-05T04:31:46.252Z,8.83
2019-03-05T04:36:49.811Z,8.53
2019-03-05T04:41:53.370Z,8.68
2019-03-05T04:46:56.928Z,7.97
2019-03-05T04:52:08.068Z,7.92
2019-03-05T04:57:11.590Z,7.30
2019-03-05T05:02:15.727Z,6.75
2019-03-05T05:07:19.288Z,6.87
2019-03-05T05:12:22.815Z,7.80
2019-03-05T05:17:26.347Z,8.05
2019-03-05T05:22:29.902Z,7.80
2019-03-05T05:27:33.481Z,7.92
2019-03-05T05:32:37.007Z,7.53
2019-03-05T05:37:40.540Z,7.87
2019-03-05T05:42:44.074Z,7.72
2019-03-05T05:47:47.648Z,8.50
2019-03-05T05:52:51.220Z,8.95
2019-03-05T05:57:54.772Z,8.55
2019-03-05T06:02:58.317Z,7.90
2019-03-05T06:08:01.905Z,8.55
2019-03-05T06:13:05.448Z,8.18
2019-03-05T06:18:09.057Z,7.62
2019-03-05T06:23:12.597Z,7.97
2019-03-05T06:28:16.182Z,7.20
2019-03-05T06:33:19.749Z,7.08
2019-03-05T06:38:23.288Z,6.85
2019-03-05T06:43:27.155Z,6.80
2019-03-05T06:48:30.802Z,6.97
2019-03-05T06:53:34.401Z,7.35
2019-03-05T06:58:37.932Z,7.55
2019-03-05T07:03:41.476Z,7.15
2019-03-05T07:08:48.225Z,7.42
2019-03-05T07:13:54.385Z,7.27
2019-03-05T07:18:59.655Z,7.30
2019-03-05T07:24:24.264Z,7.40
2019-03-05T07:29:27.888Z,7.10
2019-03-05T07:34:33.024Z,6.62
2019-03-05T07:39:36.588Z,7.67
2019-03-05T07:44:40.124Z,3.60
2019-03-05T07:49:44.435Z,3.42
2019-03-05T07:54:48.134Z,3.25
2019-03-05T07:59:51.676Z,2.40
2019-03-05T08:04:55.242Z,1.92
2019-03-05T08:10:02.848Z,2.50
2019-03-05T08:15:15.245Z,2.62
2019-03-05T08:20:18.804Z,2.05
2019-03-05T08:25:22.399Z,1.90
2019-03-05T08:30:25.907Z,1.70
2019-03-05T08:35:29.488Z,2.27
2019-03-05T08:40:33.341Z,4.33
2019-03-05T08:45:36.880Z,2.12
2019-03-05T08:50:40.416Z,2.00
2019-03-05T08:55:43.960Z,5.53
2019-03-05T09:00:48.263Z,2.30
2019-03-05T09:05:51.888Z,2.15
2019-03-05T09:10:55.430Z,2.00
2019-03-05T09:15:58.966Z,2.05
2019-03-05T09:21:02.506Z,1.80
2019-03-05T09:26:06.078Z,2.10
2019-03-05T09:31:09.630Z,2.14
2019-03-05T09:36:13.185Z,3.08
2019-03-05T09:41:16.731Z,1.92
2019-03-05T09:46:20.288Z,1.80
2019-03-05T09:51:23.853Z,2.47
2019-03-05T09:56:28.965Z,2.40
2019-03-05T10:01:32.548Z,2.00
2019-03-05T10:06:36.089Z,1.75
2019-03-05T10:11:39.670Z,2.33
2019-03-05T10:16:43.190Z,1.87
2019-03-05T10:21:46.820Z,2.90
2019-03-05T10:26:50.395Z,1.85
2019-03-05T10:31:53.940Z,1.77
2019-03-05T10:36:57.504Z,1.20
2019-03-05T10:42:01.073Z,1.42
2019-03-05T10:47:04.975Z,1.82
2019-03-05T10:52:08.544Z,1.60
2019-03-05T10:57:12.214Z,1.80
2019-03-05T11:02:15.956Z,1.62
2019-03-05T11:07:19.492Z,1.65
2019-03-05T11:12:23.021Z,2.98
2019-03-05T11:17:26.579Z,1.30
2019-03-05T11:22:30.155Z,1.27
2019-03-05T11:27:33.721Z,1.27
2019-03-05T11:32:37.343Z,1.90
2019-03-05T11:37:40.913Z,1.57
2019-03-05T11:42:44.483Z,1.52
2019-03-05T11:47:48.704Z,1.40
2019-03-05T11:52:52.219Z,1.77
2019-03-05T11:57:55.787Z,4.60
2019-03-05T12:02:59.313Z,1.82
2019-03-05T12:08:02.850Z,6.50
2019-03-05T12:13:06.440Z,3.33
2019-03-05T12:18:10.278Z,9.03
2019-03-05T12:23:13.819Z,5.23
2019-03-05T12:28:17.364Z,13.05
2019-03-05T12:33:20.910Z,6.43
2019-03-05T12:38:24.465Z,2.90
2019-03-05T12:43:28.025Z,2.05
2019-03-05T12:48:39.631Z,5.30
2019-03-05T12:53:36.896Z,2.40
2019-03-05T12:58:40.447Z,2.35
2019-03-05T13:03:44.008Z,6.33
2019-03-05T13:08:47.626Z,1.60
2019-03-05T13:14:01.850Z,1.70
2019-03-05T13:18:58.379Z,1.55
2019-03-05T13:24:01.718Z,1.70
2019-03-05T13:29:05.289Z,10.88
2019-03-05T13:34:08.840Z,1.82
2019-03-05T13:39:12.404Z,1.42
2019-03-05T13:44:32.115Z,1.60
2019-03-05T13:49:59.831Z,2.05
2019-03-05T13:55:04.722Z,2.50
2019-03-05T14:00:12.078Z,2.90
2019-03-05T14:05:21.848Z,7.37
2019-03-05T14:10:26.312Z,4.08
2019-03-05T14:15:30.000Z,3.67
2019-03-05T14:20:35.187Z,3.83
2019-03-05T14:25:38.874Z,2.52
2019-03-05T14:30:42.550Z,2.40
2019-03-05T14:35:47.570Z,2.30
2019-03-05T14:40:51.474Z,1.35
2019-03-05T14:45:55.171Z,1.90
2019-03-05T14:50:58.759Z,2.00
2019-03-05T14:56:02.411Z,2.58
2019-03-05T15:01:06.519Z,2.27
2019-03-05T15:06:10.288Z,2.10
2019-03-05T15:11:15.490Z,1.60
2019-03-05T15:16:19.216Z,1.50
2019-03-05T15:21:22.954Z,1.42
2019-03-05T15:26:26.595Z,1.30
2019-03-05T15:31:30.341Z,1.20
2019-03-05T15:36:34.576Z,1.10
2019-03-05T15:41:38.276Z,1.20
2019-03-05T15:46:41.979Z,1.22
2019-03-05T15:51:45.797Z,1.10
2019-03-05T15:56:49.408Z,1.12
2019-03-05T16:01:53.022Z,0.98
2019-03-05T16:06:56.661Z,1.55
2019-03-05T16:12:00.213Z,1.20
2019-03-05T16:17:04.794Z,1.47
2019-03-05T16:22:08.365Z,1.55
2019-03-05T16:27:11.936Z,1.30
2019-03-05T16:32:23.008Z,2.62
2019-03-05T16:37:42.712Z,1.82
2019-03-05T16:42:52.092Z,23.85
2019-03-05T16:47:57.342Z,8.50
2019-03-05T16:53:02.509Z,12.45
2019-03-05T16:58:23.883Z,7.90
2019-03-05T17:03:41.172Z,16.73
2019-03-05T17:08:52.114Z,22.42
2019-03-05T17:13:55.696Z,10.98
2019-03-05T17:18:59.584Z,20.15
2019-03-05T17:24:03.385Z,7.67
2019-03-05T17:29:07.214Z,5.15
2019-03-05T17:34:11.240Z,5.28
2019-03-05T17:39:16.608Z,5.03
2019-03-05T17:44:20.229Z,6.17
2019-03-05T17:49:23.837Z,14.00
2019-03-05T17:54:27.727Z,6.08
2019-03-05T17:59:31.273Z,8.40
2019-03-05T18:04:34.835Z,9.90
2019-03-05T18:09:38.385Z,11.70
2019-03-05T18:14:41.950Z,6.65
2019-03-05T18:19:45.703Z,6.65
2019-03-05T18:24:49.273Z,5.30
2019-03-05T18:29:53.082Z,6.95
2019-03-05T18:34:56.657Z,7.42
2019-03-05T18:40:00.405Z,8.80
2019-03-05T18:45:05.979Z,8.58
2019-03-05T18:50:12.923Z,8.10
2019-03-05T18:55:23.804Z,8.30
2019-03-05T19:00:33.974Z,9.73
2019-03-05T19:05:37.547Z,9.90
2019-03-05T19:10:41.153Z,22.15
2019-03-05T19:15:44.708Z,8.35
2019-03-05T19:20:48.283Z,8.65
2019-03-05T19:25:51.870Z,7.57
2019-03-05T19:30:55.451Z,8.15
2019-03-05T19:35:59.046Z,9.05
2019-03-05T19:41:02.584Z,7.40
2019-03-05T19:46:06.114Z,7.85
2019-03-05T19:51:09.696Z,7.10
2019-03-05T19:56:13.280Z,7.42
2019-03-05T20:01:18.464Z,7.57
2019-03-05T20:06:22.029Z,7.35
2019-03-05T20:11:25.604Z,8.33
2019-03-05T20:16:29.223Z,7.47
2019-03-05T20:21:32.808Z,8.33
2019-03-05T20:26:36.356Z,7.50
2019-03-05T20:31:39.890Z,8.63
2019-03-05T20:36:43.460Z,8.30
2019-03-05T20:41:47.282Z,8.68
2019-03-05T20:46:50.838Z,9.10
2019-03-05T20:51:54.539Z,8.80
2019-03-05T20:56:58.425Z,9.03
2019-03-05T21:02:02.065Z,7.97
2019-03-05T21:07:06.376Z,12.58
2019-03-05T21:12:10.268Z,7.70
2019-03-05T21:17:14.302Z,10.80
2019-03-05T21:22:19.088Z,7.60
2019-03-05T21:27:23.007Z,6.62
2019-03-05T21:32:26.942Z,6.83
2019-03-05T21:37:31.847Z,7.55
2019-03-05T21:42:35.955Z,8.03
2019-03-05T21:47:39.593Z,8.95
2019-03-05T21:52:43.395Z,8.55
2019-03-05T21:57:47.462Z,7.20
2019-03-05T22:02:51.529Z,8.38
2019-03-05T22:07:55.517Z,9.60
2019-03-05T22:12:59.087Z,9.60
2019-03-05T22:18:03.020Z,8.63
2019-03-05T22:23:06.819Z,7.22
2019-03-05T22:28:10.379Z,8.33
2019-03-05T22:33:13.910Z,9.93
2019-03-05T22:38:17.466Z,12.45
2019-03-05T22:43:21.018Z,12.25
2019-03-05T22:48:24.579Z,10.80
2019-03-05T22:53:28.120Z,10.00
2019-03-05T22:58:31.678Z,10.10
2019-03-05T23:03:35.277Z,10.20
2019-03-05T23:08:38.794Z,9.68
2019-03-05T23:13:42.478Z,9.43
2019-03-05T23:18:46.469Z,11.03
2019-03-05T23:23:50.010Z,9.18
2019-03-05T23:28:53.583Z,9.98
2019-03-05T23:33:57.248Z,8.10
2019-03-05T23:39:00.844Z,7.83
2019-03-05T23:44:04.853Z,7.75
2019-03-05T23:49:08.386Z,7.60
2019-03-05T23:54:12.045Z,7.53
2019-03-05T23:59:15.638Z,8.00
